sim
Sign-in with your pilot id or email,
or register
Callsign
Passwort

Schedule Details

Flight Number: EWG5709 (1)
Departure: Pristina Adem Jashari International Airport (BKPR) at 19:15
Arrival: Munich Airport (EDDM) at 21:05
Route: Eurowings Passenger Schedule. Enter filed route here before submitting Pirep.

Weather Information
Getting current METAR information for BKPR 282016Z 27019KT 9999 -TSRA FEW030CB BKN040 14/09 Q1015 NOSIG
Getting current METAR information for EDDM 282020Z VRB02KT CAVOK 09/07 Q1015 NOSIG

Schedule Frequency

Route Map